This is the latest recevied weather packets stored in our database for station/object KC8QDR-1. If no packets are shown the sender has not sent any weather packets the latest 10 day(s).
| Time | Temp. | Humidity | Pressure | Rain* | Wind** | Luminosity | Snow |
|---|---|---|---|---|---|---|---|
| 1778014725 | 17.78° C | 78% | 1017.1 hPa | 0 mm | 0 m/s | - | - |
| 1778014125 | 17.78° C | 76% | 1016.7 hPa | 0 mm | 1.34 m/s, 324° | - | - |
| 1778013525 | 18.33° C | 74% | 1016.6 hPa | 0 mm | 0.89 m/s, 18° | - | - |
| 1778012925 | 18.89° C | 72% | 1016.6 hPa | 0 mm | 0.89 m/s, 347° | - | - |
| 1778011729 | 18.89° C | 69% | 1016.8 hPa | 0 mm | 0 m/s | - | - |
| 1778011125 | 18.89° C | 70% | 1016.7 hPa | 0 mm | 0.45 m/s, 338° | - | - |
| 1778010525 | 18.89° C | 70% | 1016.7 hPa | 0 mm | 0.45 m/s, 279° | - | - |
| 1778009925 | 18.33° C | 71% | 1016.8 hPa | 0 mm | 0 m/s | - | - |
| 1778009325 | 18.33° C | 72% | 1016.9 hPa | 0 mm | 0 m/s | - | - |
| 1778008727 | 18.89° C | 70% | 1017.1 hPa | 0 mm | 0 m/s | - | - |
| 1778008125 | 19.44° C | 65% | 1017.1 hPa | 0 mm | 1.34 m/s, 217° | - | - |
| 1778007525 | 20° C | 63% | 1016.9 hPa | 0 mm | 0 m/s | - | - |
| 1778006925 | 20° C | 62% | 1016.8 hPa | 0 mm | 0.89 m/s, 182° | - | - |
| 1778006325 | 20° C | 61% | 1016.7 hPa | 0 mm | 0.45 m/s, 282° | - | - |
| 1778005725 | 20° C | 60% | 1016.6 hPa | 0 mm | 0.89 m/s, 204° | - | - |
| 1778005125 | 20° C | 62% | 1016.4 hPa | 0 mm | 0 m/s | - | - |
| 1778004525 | 20° C | 62% | 1016.3 hPa | 0 mm | 1.79 m/s, 214° | - | - |
| 1778003925 | 20.56° C | 62% | 1016.1 hPa | 0 mm | 0.45 m/s, 200° | - | - |
| 1778003325 | 20° C | 63% | 1016 hPa | 0 mm | 2.68 m/s, 213° | - | - |
| 1778002725 | 20.56° C | 61% | 1016 hPa | 0 mm | 1.34 m/s, 200° | - | - |
| 1778002126 | 20.56° C | 61% | 1016.1 hPa | 0 mm | 1.34 m/s, 196° | - | - |
| 1778001525 | 20.56° C | 61% | 1016.1 hPa | 0 mm | 3.13 m/s, 204° | - | - |
| 1778000925 | 20.56° C | 58% | 1016.2 hPa | 0 mm | 2.24 m/s, 278° | - | - |
| 1778000325 | 21.11° C | 57% | 1016.2 hPa | 0 mm | 0.89 m/s, 204° | - | - |
| 1777999725 | 21.67° C | 55% | 1016.2 hPa | 0 mm | 3.13 m/s, 266° | - | - |
* Rain latest hour (hover to see other rain measurements)
** Current wind speed in m/s (hover to see current wind gust speed)